Time;durP1;ratioP1;P1;durP2;ratioP2;P2;SDS_P1;SDS_P2;PMS_P1;PMS_P2;Temp;Humidity;BMP_temperature;BMP_pressure;BME280_temperature;BME280_humidity;BME280_pressure;Samples;Min_cycle;Max_cycle;Signal;HPM_P1;HPM_P2
2022/08/24 00:02:09;;;;;;;23.80;18.55;;;;;;;;;;5053387;28;20436;-77
2022/08/24 00:04:35;;;;;;;23.13;19.27;;;;;;;;;;5052274;28;20430;-77
2022/08/24 00:07:01;;;;;;;23.10;18.23;;;;;;;;;;5054624;28;20040;-76
2022/08/24 00:09:28;;;;;;;25.77;19.85;;;;;;;;;;5053354;28;20496;-77
2022/08/24 00:11:54;;;;;;;25.10;20.30;;;;;;;;;;5052694;28;20408;-77
2022/08/24 00:14:20;;;;;;;26.88;20.63;;;;;;;;;;5052622;28;20039;-76
2022/08/24 00:16:46;;;;;;;27.88;21.98;;;;;;;;;;5052655;28;20493;-77
2022/08/24 00:19:12;;;;;;;25.88;21.58;;;;;;;;;;5052945;28;20129;-77
2022/08/24 00:21:38;;;;;;;29.25;21.98;;;;;;;;;;5052311;28;20041;-77
2022/08/24 00:24:05;;;;;;;26.30;21.58;;;;;;;;;;5052573;28;20064;-76
2022/08/24 00:26:31;;;;;;;27.95;21.83;;;;;;;;;;5052650;28;20045;-77
2022/08/24 00:28:58;;;;;;;26.35;21.45;;;;;;;;;;5052704;28;20049;-76
2022/08/24 00:31:24;;;;;;;27.02;21.95;;;;;;;;;;5052000;28;20036;-76
2022/08/24 00:33:50;;;;;;;30.50;21.83;;;;;;;;;;5052365;28;20118;-76
2022/08/24 00:36:16;;;;;;;25.63;21.00;;;;;;;;;;5035599;28;20443;-77
2022/08/24 00:38:42;;;;;;;30.80;21.85;;;;;;;;;;5052157;28;20401;-76
2022/08/24 00:41:08;;;;;;;24.80;20.90;;;;;;;;;;5052456;28;20049;-76
2022/08/24 00:43:35;;;;;;;27.27;21.67;;;;;;;;;;5052318;28;20124;-77
2022/08/24 00:46:00;;;;;;;27.52;21.60;;;;;;;;;;5045528;28;20033;-76
2022/08/24 00:48:29;;;;;;;32.28;24.20;;;;;;;;;;5052504;28;20383;-77
2022/08/24 00:51:17;;;;;;;27.15;21.05;;;;;;;;;;5051985;28;20037;-76
2022/08/24 00:53:47;;;;;;;27.15;21.75;;;;;;;;;;5052050;28;20059;-77
2022/08/24 00:56:34;;;;;;;27.40;21.13;;;;;;;;;;5035099;28;20146;-76
2022/08/24 00:59:07;;;;;;;26.52;19.85;;;;;;;;;;5062409;28;20048;-76
2022/08/24 01:01:34;;;;;;;32.92;23.25;;;;;;;;;;5022880;28;20504;-76
2022/08/24 01:04:00;;;;;;;27.23;21.58;;;;;;;;;;5052070;28;20051;-76
2022/08/24 01:06:27;;;;;;;27.80;21.20;;;;;;;;;;5051900;28;20047;-76
2022/08/24 01:08:53;;;;;;;29.55;21.95;;;;;;;;;;5051428;28;20090;-76
2022/08/24 01:11:21;;;;;;;29.90;23.23;;;;;;;;;;5051530;28;20075;-76
2022/08/24 01:13:48;;;;;;;27.83;20.02;;;;;;;;;;5051478;28;20052;-76
2022/08/24 01:18:48;;;;;;;28.25;20.77;;;;;;;;;;5050917;28;20076;-76
2022/08/24 01:19:01;;;;;;;30.88;21.52;;;;;;;;;;5066288;28;20041;-76
2022/08/24 01:21:33;;;;;;;27.75;22.08;;;;;;;;;;5051970;28;20437;-77
2022/08/24 01:24:01;;;;;;;31.42;23.25;;;;;;;;;;5051500;28;20090;-76
2022/08/24 01:26:31;;;;;;;32.30;24.38;;;;;;;;;;5051837;28;20033;-76
2022/08/24 01:29:01;;;;;;;35.50;25.58;;;;;;;;;;5050958;28;20175;-77
2022/08/24 01:31:27;;;;;;;34.20;24.73;;;;;;;;;;5051672;28;20045;-76
2022/08/24 01:33:54;;;;;;;23.85;19.33;;;;;;;;;;5051508;28;20041;-76
2022/08/24 01:36:30;;;;;;;26.60;20.35;;;;;;;;;;5035169;28;20126;-76
2022/08/24 01:38:57;;;;;;;24.05;18.80;;;;;;;;;;5050759;28;20043;-76
2022/08/24 01:41:23;;;;;;;26.80;21.48;;;;;;;;;;5051576;28;20036;-76
2022/08/24 01:43:49;;;;;;;24.98;19.95;;;;;;;;;;5050332;28;20049;-76
2022/08/24 01:46:16;;;;;;;30.90;22.95;;;;;;;;;;5052024;28;20044;-76
2022/08/24 01:48:42;;;;;;;26.00;21.58;;;;;;;;;;5050737;28;20051;-76
2022/08/24 01:51:08;;;;;;;27.92;22.75;;;;;;;;;;5034640;28;20067;-76
2022/08/24 01:53:34;;;;;;;31.77;24.65;;;;;;;;;;5052342;28;20045;-76
2022/08/24 01:56:00;;;;;;;38.17;28.27;;;;;;;;;;5050978;28;20398;-77
2022/08/24 01:58:26;;;;;;;37.50;27.25;;;;;;;;;;5051257;28;20059;-76
2022/08/24 02:00:52;;;;;;;38.83;28.90;;;;;;;;;;5050768;28;20132;-76
2022/08/24 02:03:19;;;;;;;43.42;30.02;;;;;;;;;;5051199;28;20398;-77
2022/08/24 02:05:45;;;;;;;37.80;28.42;;;;;;;;;;5047603;28;20038;-77
2022/08/24 02:08:11;;;;;;;39.83;29.95;;;;;;;;;;5045758;28;20150;-77
2022/08/24 02:10:37;;;;;;;33.33;23.83;;;;;;;;;;5044835;28;20052;-77
2022/08/24 02:13:03;;;;;;;31.60;23.30;;;;;;;;;;5043294;28;20120;-77
2022/08/24 02:15:33;;;;;;;36.60;25.77;;;;;;;;;;5046373;28;20048;-77
2022/08/24 02:17:59;;;;;;;34.05;27.05;;;;;;;;;;5028959;28;20044;-76
2022/08/24 02:20:26;;;;;;;25.73;21.88;;;;;;;;;;5030237;28;20440;-76
2022/08/24 02:22:53;;;;;;;31.23;21.42;;;;;;;;;;5044572;28;20032;-76
2022/08/24 02:25:20;;;;;;;36.47;27.05;;;;;;;;;;5051199;28;20048;-77
2022/08/24 02:27:46;;;;;;;31.23;23.05;;;;;;;;;;5049939;28;20516;-77
2022/08/24 02:30:12;;;;;;;37.35;27.73;;;;;;;;;;5051160;28;20052;-77
2022/08/24 02:32:38;;;;;;;36.97;27.85;;;;;;;;;;5050971;28;20040;-77
2022/08/24 02:35:05;;;;;;;36.25;26.98;;;;;;;;;;5050783;28;20044;-77
2022/08/24 02:37:31;;;;;;;31.42;24.15;;;;;;;;;;5050187;28;20045;-76
2022/08/24 02:39:57;;;;;;;33.58;24.52;;;;;;;;;;5049256;28;20037;-77
2022/08/24 02:42:23;;;;;;;27.38;22.50;;;;;;;;;;5034018;28;20064;-77
2022/08/24 02:44:49;;;;;;;26.00;21.38;;;;;;;;;;5049943;28;20047;-77
2022/08/24 02:47:16;;;;;;;31.52;25.17;;;;;;;;;;5050898;28;20525;-77
2022/08/24 02:49:42;;;;;;;34.58;25.77;;;;;;;;;;5049719;28;20049;-77
2022/08/24 02:52:08;;;;;;;37.88;28.52;;;;;;;;;;5051494;28;20549;-77
2022/08/24 02:54:34;;;;;;;37.45;28.65;;;;;;;;;;5052817;28;20037;-77
2022/08/24 02:57:00;;;;;;;37.65;26.67;;;;;;;;;;5054006;28;20117;-77
2022/08/24 02:59:26;;;;;;;33.47;25.52;;;;;;;;;;5053705;28;20097;-77
2022/08/24 03:01:52;;;;;;;33.72;26.48;;;;;;;;;;5053824;28;20053;-77
2022/08/24 03:04:19;;;;;;;32.15;24.27;;;;;;;;;;5054487;28;20037;-76
2022/08/24 03:06:45;;;;;;;31.88;25.02;;;;;;;;;;5054392;28;20052;-77
2022/08/24 03:09:12;;;;;;;35.22;25.50;;;;;;;;;;5053841;28;20377;-77
2022/08/24 03:11:38;;;;;;;30.77;24.30;;;;;;;;;;5055691;28;20067;-77
2022/08/24 03:14:05;;;;;;;31.00;24.58;;;;;;;;;;5053645;28;20041;-77
2022/08/24 03:16:31;;;;;;;31.85;26.25;;;;;;;;;;5054634;28;20563;-77
2022/08/24 03:18:57;;;;;;;32.50;26.10;;;;;;;;;;5053545;28;20044;-77
2022/08/24 03:21:23;;;;;;;25.55;21.10;;;;;;;;;;5036934;28;20041;-77
2022/08/24 03:23:49;;;;;;;31.98;23.70;;;;;;;;;;5053802;28;20505;-77
2022/08/24 03:26:15;;;;;;;33.47;25.58;;;;;;;;;;5053735;28;20532;-77
2022/08/24 03:28:41;;;;;;;34.03;25.33;;;;;;;;;;5053728;28;20036;-77
2022/08/24 03:31:07;;;;;;;31.52;24.50;;;;;;;;;;5053026;28;20490;-77
2022/08/24 03:33:34;;;;;;;28.90;23.85;;;;;;;;;;5037373;28;20029;-76
2022/08/24 03:36:00;;;;;;;28.15;22.15;;;;;;;;;;5036835;28;20162;-77
2022/08/24 03:38:27;;;;;;;32.03;24.88;;;;;;;;;;5053926;28;20037;-77
2022/08/24 03:40:53;;;;;;;31.63;24.80;;;;;;;;;;5036894;28;20481;-77
2022/08/24 03:46:06;;;;;;;35.60;27.42;;;;;;;;;;5055674;28;20068;-76
2022/08/24 03:48:32;;;;;;;36.28;26.48;;;;;;;;;;5035608;28;20057;-76
2022/08/24 03:50:59;;;;;;;36.85;27.63;;;;;;;;;;5052023;28;20041;-77
2022/08/24 03:53:25;;;;;;;36.92;27.23;;;;;;;;;;5037193;28;20044;-76
2022/08/24 03:55:51;;;;;;;42.33;29.45;;;;;;;;;;5053172;28;20472;-76
2022/08/24 03:58:17;;;;;;;36.35;27.88;;;;;;;;;;5051540;28;20048;-76
2022/08/24 04:00:44;;;;;;;40.08;29.80;;;;;;;;;;5051959;28;20041;-74
2022/08/24 04:03:10;;;;;;;39.53;29.42;;;;;;;;;;5051830;28;20037;-77
2022/08/24 04:05:37;;;;;;;35.28;27.85;;;;;;;;;;5038402;28;20049;-77
2022/08/24 04:08:04;;;;;;;36.75;28.10;;;;;;;;;;5043039;28;20123;-76
2022/08/24 04:10:30;;;;;;;36.72;27.52;;;;;;;;;;5041082;28;20045;-77
2022/08/24 04:12:57;;;;;;;34.13;26.45;;;;;;;;;;5045727;28;20047;-76
2022/08/24 04:15:24;;;;;;;33.80;26.67;;;;;;;;;;5042858;28;20033;-76
2022/08/24 04:17:50;;;;;;;35.83;27.15;;;;;;;;;;5040359;28;20049;-76
2022/08/24 04:20:16;;;;;;;36.88;28.48;;;;;;;;;;5044376;28;20123;-76
2022/08/24 04:22:43;;;;;;;37.03;28.40;;;;;;;;;;5025146;28;20486;-76
2022/08/24 04:25:09;;;;;;;31.00;24.20;;;;;;;;;;5035719;28;20119;-76
2022/08/24 04:27:36;;;;;;;38.47;28.60;;;;;;;;;;5052646;28;20044;-76
2022/08/24 04:30:02;;;;;;;33.13;26.60;;;;;;;;;;5035777;28;20068;-78
2022/08/24 04:32:30;;;;;;;36.20;26.48;;;;;;;;;;5052859;28;20056;-78
2022/08/24 04:34:58;;;;;;;31.70;25.10;;;;;;;;;;5052316;28;20044;-78
2022/08/24 04:37:24;;;;;;;37.13;26.65;;;;;;;;;;5052192;28;20127;-77
2022/08/24 04:39:50;;;;;;;38.72;30.00;;;;;;;;;;5052792;28;20045;-79
2022/08/24 04:42:16;;;;;;;36.42;26.75;;;;;;;;;;5052142;28;20045;-79
2022/08/24 04:44:43;;;;;;;41.05;31.33;;;;;;;;;;5035447;28;20191;-79
2022/08/24 04:47:09;;;;;;;33.10;21.50;;;;;;;;;;5051633;28;20053;-80
2022/08/24 04:49:37;;;;;;;28.80;23.25;;;;;;;;;;5058395;28;20055;-79
2022/08/24 04:52:03;;;;;;;32.88;25.58;;;;;;;;;;5030297;28;20044;-79
2022/08/24 04:54:31;;;;;;;31.70;25.73;;;;;;;;;;5046925;28;20040;-79
2022/08/24 04:56:57;;;;;;;35.47;25.15;;;;;;;;;;5046023;28;20042;-78
2022/08/24 04:59:23;;;;;;;35.38;25.85;;;;;;;;;;5045511;28;20041;-78
2022/08/24 05:01:50;;;;;;;33.20;26.48;;;;;;;;;;5045456;28;20047;-76
2022/08/24 05:04:17;;;;;;;31.27;22.90;;;;;;;;;;5046127;28;20090;-76
2022/08/24 05:06:43;;;;;;;34.60;27.52;;;;;;;;;;5049610;28;20070;-77
2022/08/24 05:09:09;;;;;;;35.17;27.77;;;;;;;;;;5037500;28;20048;-76
2022/08/24 05:11:39;;;;;;;37.60;27.73;;;;;;;;;;5039394;28;20044;-77
2022/08/24 05:14:05;;;;;;;29.05;23.95;;;;;;;;;;5047313;28;20041;-76
2022/08/24 05:16:33;;;;;;;29.85;24.95;;;;;;;;;;5027515;28;20074;-76
2022/08/24 05:19:01;;;;;;;35.55;27.55;;;;;;;;;;5021905;28;20033;-76
2022/08/24 05:21:29;;;;;;;34.33;27.05;;;;;;;;;;5037377;28;20056;-77
2022/08/24 05:23:56;;;;;;;32.65;26.25;;;;;;;;;;5047920;28;20509;-77
2022/08/24 05:26:23;;;;;;;32.38;24.85;;;;;;;;;;5048583;28;20048;-76
2022/08/24 05:28:49;;;;;;;30.60;24.48;;;;;;;;;;5046263;28;20076;-76
2022/08/24 05:31:20;;;;;;;28.88;25.40;;;;;;;;;;5033586;28;20048;-77
2022/08/24 05:33:47;;;;;;;27.33;23.00;;;;;;;;;;5035221;28;20096;-78
2022/08/24 05:36:19;;;;;;;26.27;22.50;;;;;;;;;;5050116;28;20167;-77
2022/08/24 05:38:46;;;;;;;24.05;21.45;;;;;;;;;;5050412;28;20080;-77
2022/08/24 05:41:13;;;;;;;27.50;22.20;;;;;;;;;;5034406;28;20120;-78
2022/08/24 05:43:39;;;;;;;25.88;21.90;;;;;;;;;;5052395;28;20036;-77
2022/08/24 05:46:05;;;;;;;25.20;21.88;;;;;;;;;;5034694;28;20040;-78
2022/08/24 05:48:34;;;;;;;23.98;21.05;;;;;;;;;;5049434;28;20060;-77
2022/08/24 05:51:01;;;;;;;23.20;20.60;;;;;;;;;;5034346;28;20126;-77
2022/08/24 05:53:27;;;;;;;24.10;21.08;;;;;;;;;;5051720;28;20036;-78
2022/08/24 05:55:54;;;;;;;25.52;20.67;;;;;;;;;;5051185;28;20048;-77
2022/08/24 05:58:20;;;;;;;23.75;20.63;;;;;;;;;;5032943;28;20044;-77
2022/08/24 06:00:46;;;;;;;26.17;21.33;;;;;;;;;;5050936;28;20073;-77
2022/08/24 06:03:15;;;;;;;22.17;18.15;;;;;;;;;;5051674;28;20549;-77
2022/08/24 06:05:42;;;;;;;21.38;17.92;;;;;;;;;;5054227;28;20513;-78
2022/08/24 06:08:09;;;;;;;22.50;19.88;;;;;;;;;;5050050;28;20041;-78
2022/08/24 06:10:39;;;;;;;23.05;19.90;;;;;;;;;;5033949;28;20044;-78
2022/08/24 06:13:07;;;;;;;24.02;20.38;;;;;;;;;;5050595;28;20045;-79
2022/08/24 06:15:33;;;;;;;23.67;19.40;;;;;;;;;;5050349;28;20048;-78
2022/08/24 06:18:00;;;;;;;21.27;18.25;;;;;;;;;;5050617;28;20699;-79
2022/08/24 06:20:26;;;;;;;21.55;18.65;;;;;;;;;;5031569;28;20041;-78
2022/08/24 06:22:52;;;;;;;18.77;16.77;;;;;;;;;;5050531;28;20044;-79
2022/08/24 06:28:03;;;;;;;19.93;17.30;;;;;;;;;;5050513;28;20078;-79
2022/08/24 06:30:29;;;;;;;21.17;17.52;;;;;;;;;;5053513;28;20772;-79
2022/08/24 06:32:58;;;;;;;20.80;16.55;;;;;;;;;;5038101;28;20037;-82
2022/08/24 06:35:24;;;;;;;22.00;17.63;;;;;;;;;;5054453;28;20090;-78
2022/08/24 06:37:50;;;;;;;21.45;16.92;;;;;;;;;;5054516;28;20055;-79
2022/08/24 06:40:19;;;;;;;20.20;17.85;;;;;;;;;;5053183;28;20498;-79
2022/08/24 06:42:45;;;;;;;17.20;15.45;;;;;;;;;;5053885;28;20086;-78
2022/08/24 06:45:11;;;;;;;17.13;15.27;;;;;;;;;;5037177;28;20041;-78
2022/08/24 06:47:37;;;;;;;17.08;15.38;;;;;;;;;;5037001;28;20041;-78
2022/08/24 06:50:05;;;;;;;18.60;15.60;;;;;;;;;;5052778;28;20179;-78
2022/08/24 06:52:31;;;;;;;17.73;15.25;;;;;;;;;;5051645;28;20029;-78
2022/08/24 06:54:58;;;;;;;16.25;14.45;;;;;;;;;;5053761;28;20494;-78
2022/08/24 06:57:24;;;;;;;16.45;14.55;;;;;;;;;;5054202;28;20195;-78
2022/08/24 06:59:50;;;;;;;18.10;14.55;;;;;;;;;;5052937;28;20051;-77
2022/08/24 07:02:18;;;;;;;13.65;12.13;;;;;;;;;;5048495;28;20038;-78
2022/08/24 07:04:44;;;;;;;16.33;13.48;;;;;;;;;;5049748;28;20037;-78
2022/08/24 07:07:11;;;;;;;15.65;13.05;;;;;;;;;;5045535;28;20504;-78
2022/08/24 07:09:37;;;;;;;14.18;12.43;;;;;;;;;;5049862;28;20049;-78
2022/08/24 07:12:03;;;;;;;13.82;11.32;;;;;;;;;;5046565;28;20408;-78
2022/08/24 07:14:29;;;;;;;12.90;10.35;;;;;;;;;;5047841;28;20044;-79
2022/08/24 07:16:56;;;;;;;13.77;10.95;;;;;;;;;;5050781;28;20077;-78
2022/08/24 07:19:22;;;;;;;14.88;11.15;;;;;;;;;;5045617;28;20092;-78
2022/08/24 07:21:48;;;;;;;16.10;11.50;;;;;;;;;;5048678;28;20045;-78
2022/08/24 07:24:14;;;;;;;14.73;9.77;;;;;;;;;;5049621;28;20052;-78
2022/08/24 07:26:41;;;;;;;10.93;8.52;;;;;;;;;;5052668;28;20048;-78
2022/08/24 07:29:13;;;;;;;11.98;9.73;;;;;;;;;;5050964;28;20045;-76
2022/08/24 07:31:39;;;;;;;14.30;9.75;;;;;;;;;;5060200;28;20064;-77
2022/08/24 07:34:07;;;;;;;10.30;8.52;;;;;;;;;;5048632;28;20549;-77
2022/08/24 07:36:34;;;;;;;14.52;10.20;;;;;;;;;;5043523;28;20048;-77
2022/08/24 07:39:00;;;;;;;12.07;9.35;;;;;;;;;;5047606;28;20493;-77
2022/08/24 07:41:26;;;;;;;17.75;10.35;;;;;;;;;;5045212;28;20036;-77
2022/08/24 07:43:53;;;;;;;16.25;9.20;;;;;;;;;;5030892;28;20040;-77
2022/08/24 07:46:19;;;;;;;11.15;7.32;;;;;;;;;;5047377;28;20529;-77
2022/08/24 07:48:46;;;;;;;10.88;7.22;;;;;;;;;;5049339;28;20137;-77
2022/08/24 07:51:13;;;;;;;12.50;6.97;;;;;;;;;;5051941;28;20053;-77
2022/08/24 07:53:40;;;;;;;8.13;5.90;;;;;;;;;;5042211;28;20050;-76
2022/08/24 07:56:07;;;;;;;7.82;6.13;;;;;;;;;;5047403;28;20029;-77
2022/08/24 07:58:33;;;;;;;9.88;6.15;;;;;;;;;;5044301;28;20486;-76
2022/08/24 08:00:59;;;;;;;11.43;5.90;;;;;;;;;;5046301;28;20052;-76
2022/08/24 08:03:26;;;;;;;11.55;5.45;;;;;;;;;;5046350;28;20076;-77
2022/08/24 08:05:56;;;;;;;12.38;5.40;;;;;;;;;;5044668;28;20498;-78
2022/08/24 08:08:23;;;;;;;6.88;4.90;;;;;;;;;;5052382;28;20032;-78
2022/08/24 08:10:49;;;;;;;10.05;4.82;;;;;;;;;;5048031;28;20041;-79
2022/08/24 08:13:15;;;;;;;9.20;5.40;;;;;;;;;;5047928;28;20045;-78
2022/08/24 08:15:41;;;;;;;7.55;5.75;;;;;;;;;;5042645;28;20063;-78
2022/08/24 08:18:07;;;;;;;10.02;6.35;;;;;;;;;;5047143;28;20045;-77
2022/08/24 08:20:34;;;;;;;7.72;4.93;;;;;;;;;;5044287;28;20536;-78
2022/08/24 08:25:48;;;;;;;8.13;4.97;;;;;;;;;;5052298;28;20040;-78
2022/08/24 08:28:14;;;;;;;7.63;5.40;;;;;;;;;;5052508;28;20037;-78
2022/08/24 08:30:40;;;;;;;7.97;4.72;;;;;;;;;;5051966;28;20578;-78
2022/08/24 08:33:07;;;;;;;5.72;4.70;;;;;;;;;;5051686;28;20122;-78
2022/08/24 08:35:33;;;;;;;7.35;5.38;;;;;;;;;;5034917;28;20037;-79
2022/08/24 08:38:00;;;;;;;8.63;5.50;;;;;;;;;;5052222;28;20127;-79
2022/08/24 08:40:44;;;;;;;8.60;4.97;;;;;;;;;;5052040;28;20094;-81
2022/08/24 08:43:10;;;;;;;;;;;;;;;;;;5052685;28;20178;-81
2022/08/24 08:45:39;;;;;;;9.02;5.00;;;;;;;;;;5051586;28;20048;-80
2022/08/24 08:48:38;;;;;;;7.93;5.50;;;;;;;;;;5035954;28;20124;-82
2022/08/24 08:51:13;;;;;;;7.97;5.05;;;;;;;;;;5025254;28;20053;-84
2022/08/24 08:53:49;;;;;;;10.00;4.90;;;;;;;;;;5035404;28;20045;-83
2022/08/24 08:56:34;;;;;;;9.27;6.15;;;;;;;;;;5052071;28;20118;-80
2022/08/24 08:59:19;;;;;;;8.88;4.53;;;;;;;;;;5046167;28;20041;-80
2022/08/24 09:01:59;;;;;;;9.20;4.43;;;;;;;;;;5050242;28;20045;-80
2022/08/24 09:04:35;;;;;;;8.05;3.90;;;;;;;;;;5051903;28;20037;-84
2022/08/24 09:07:16;;;;;;;7.53;3.90;;;;;;;;;;5050321;28;20041;-80
2022/08/24 09:09:55;;;;;;;7.63;3.88;;;;;;;;;;5052940;28;20037;-80
2022/08/24 09:12:26;;;;;;;4.82;3.10;;;;;;;;;;5053924;28;20071;-80
2022/08/24 09:15:13;;;;;;;5.93;3.70;;;;;;;;;;5023957;28;20107;-80
2022/08/24 09:17:51;;;;;;;4.70;3.25;;;;;;;;;;5059737;28;20060;-79
2022/08/24 09:20:44;;;;;;;7.15;2.72;;;;;;;;;;5043366;28;20044;-81
2022/08/24 09:23:22;;;;;;;8.35;2.85;;;;;;;;;;5031741;28;20520;-80
2022/08/24 09:25:55;;;;;;;7.15;3.38;;;;;;;;;;5033625;28;20037;-80
2022/08/24 09:28:24;;;;;;;5.72;2.80;;;;;;;;;;5034727;28;20037;-80
2022/08/24 09:31:02;;;;;;;6.68;2.83;;;;;;;;;;5038136;28;20049;-80
2022/08/24 09:33:48;;;;;;;7.50;2.85;;;;;;;;;;5049873;28;20485;-80
2022/08/24 09:36:33;;;;;;;5.28;3.00;;;;;;;;;;5054867;28;20040;-80
2022/08/24 09:39:02;;;;;;;6.78;2.72;;;;;;;;;;5040079;28;20040;-80
2022/08/24 09:41:45;;;;;;;4.80;3.05;;;;;;;;;;5045420;28;20041;-80
2022/08/24 09:44:26;;;;;;;9.68;3.17;;;;;;;;;;5043959;28;20032;-80
2022/08/24 09:47:08;;;;;;;5.18;2.72;;;;;;;;;;5044293;28;20052;-81
2022/08/24 09:49:37;;;;;;;4.30;3.13;;;;;;;;;;5041597;28;20052;-80
2022/08/24 09:52:21;;;;;;;6.45;3.50;;;;;;;;;;5048615;28;20045;-80
2022/08/24 09:54:59;;;;;;;4.60;2.97;;;;;;;;;;5043505;28;20041;-80
2022/08/24 09:57:34;;;;;;;6.07;3.00;;;;;;;;;;5044234;28;20041;-80
2022/08/24 10:00:12;;;;;;;4.35;2.80;;;;;;;;;;5045241;28;20093;-80
2022/08/24 10:02:42;;;;;;;4.47;2.70;;;;;;;;;;5049433;28;20045;-79
2022/08/24 10:05:27;;;;;;;5.45;3.28;;;;;;;;;;5046623;28;20048;-80
2022/08/24 10:08:02;;;;;;;6.10;2.95;;;;;;;;;;5040800;28;20083;-82
2022/08/24 10:11:01;;;;;;;4.50;2.67;;;;;;;;;;5043165;28;20046;-79
2022/08/24 10:13:33;;;;;;;6.05;2.72;;;;;;;;;;5004044;28;20085;-81
2022/08/24 10:16:13;;;;;;;4.80;2.15;;;;;;;;;;5045547;28;20052;-75
2022/08/24 10:18:39;;;;;;;4.07;2.38;;;;;;;;;;5045228;28;20053;-80
2022/08/24 10:21:07;;;;;;;3.17;2.10;;;;;;;;;;5043541;28;20037;-80
2022/08/24 10:23:36;;;;;;;3.40;1.90;;;;;;;;;;5046873;28;20119;-80
2022/08/24 10:26:08;;;;;;;3.38;1.58;;;;;;;;;;5032685;28;20037;-79
2022/08/24 10:28:53;;;;;;;3.20;1.98;;;;;;;;;;5034182;28;20047;-80
2022/08/24 10:31:26;;;;;;;6.68;2.00;;;;;;;;;;5025466;28;20063;-80
2022/08/24 10:34:01;;;;;;;4.47;1.80;;;;;;;;;;5044601;28;20067;-80
2022/08/24 10:36:39;;;;;;;6.20;2.08;;;;;;;;;;5043065;28;20103;-80
2022/08/24 10:43:32;;;;;;;5.70;1.90;;;;;;;;;;5037889;28;20041;-80
2022/08/24 10:45:17;;;;;;;3.63;1.60;;;;;;;;;;5048799;28;20038;-79
2022/08/24 10:48:02;;;;;;;4.57;1.70;;;;;;;;;;5049586;28;20041;-80
2022/08/24 10:50:49;;;;;;;3.03;1.70;;;;;;;;;;5039586;28;20057;-80
2022/08/24 10:53:26;;;;;;;5.03;1.70;;;;;;;;;;5030450;28;20037;-79
2022/08/24 10:56:05;;;;;;;6.30;1.50;;;;;;;;;;5047244;28;20513;-79
2022/08/24 10:58:44;;;;;;;2.88;1.60;;;;;;;;;;5045286;28;20053;-79
2022/08/24 11:01:16;;;;;;;2.20;1.52;;;;;;;;;;5043291;28;20044;-79
2022/08/24 11:04:04;;;;;;;2.67;1.50;;;;;;;;;;5038938;28;20037;-79
2022/08/24 11:06:32;;;;;;;3.75;1.30;;;;;;;;;;5039102;28;20079;-79
2022/08/24 11:09:04;;;;;;;2.67;1.13;;;;;;;;;;5050385;28;20116;-79
2022/08/24 11:11:32;;;;;;;4.10;1.52;;;;;;;;;;5048452;28;20090;-79
2022/08/24 11:14:00;;;;;;;2.83;1.60;;;;;;;;;;5044964;28;20048;-79
2022/08/24 11:16:32;;;;;;;4.38;1.27;;;;;;;;;;5053779;28;20040;-80
2022/08/24 11:19:00;;;;;;;3.28;1.60;;;;;;;;;;5051974;28;20029;-79
2022/08/24 11:21:32;;;;;;;5.07;1.60;;;;;;;;;;5035587;28;20037;-79
2022/08/24 11:24:03;;;;;;;3.00;1.52;;;;;;;;;;5050433;28;20037;-79
2022/08/24 11:26:29;;;;;;;5.43;1.55;;;;;;;;;;5034234;28;20120;-79
2022/08/24 11:28:59;;;;;;;3.33;1.80;;;;;;;;;;5048598;28;20032;-79
2022/08/24 11:31:33;;;;;;;6.70;1.77;;;;;;;;;;5033709;28;20041;-79
2022/08/24 11:34:02;;;;;;;5.28;1.70;;;;;;;;;;5050768;28;20396;-79
2022/08/24 11:36:31;;;;;;;5.55;2.13;;;;;;;;;;5035956;28;20072;-79
2022/08/24 11:39:11;;;;;;;4.20;1.58;;;;;;;;;;5051585;28;20067;-79
2022/08/24 11:41:47;;;;;;;2.83;1.35;;;;;;;;;;5047951;28;20048;-79
2022/08/24 11:44:32;;;;;;;2.95;1.40;;;;;;;;;;5038797;28;20046;-79
2022/08/24 11:47:01;;;;;;;4.28;1.17;;;;;;;;;;5050410;28;20041;-79
2022/08/24 11:49:33;;;;;;;4.25;1.20;;;;;;;;;;5047502;28;20497;-82
2022/08/24 11:52:09;;;;;;;3.80;1.35;;;;;;;;;;5049195;28;20053;-78
2022/08/24 11:54:38;;;;;;;3.20;1.20;;;;;;;;;;5045225;28;20048;-80
2022/08/24 11:57:14;;;;;;;3.20;1.40;;;;;;;;;;5052903;28;20037;-79
2022/08/24 12:00:11;;;;;;;3.97;1.25;;;;;;;;;;5051677;28;20049;-79
2022/08/24 12:03:00;;;;;;;2.65;1.30;;;;;;;;;;5034170;28;20037;-79
2022/08/24 12:05:32;;;;;;;3.50;1.25;;;;;;;;;;5048452;28;20402;-79
2022/08/24 12:07:58;;;;;;;3.65;1.20;;;;;;;;;;5051549;28;20134;-79
2022/08/24 12:10:27;;;;;;;2.97;1.00;;;;;;;;;;5051046;28;20041;-79
2022/08/24 12:12:57;;;;;;;1.73;1.00;;;;;;;;;;5027043;28;20049;-82
2022/08/24 12:15:36;;;;;;;1.75;0.75;;;;;;;;;;5051812;28;20052;-82
2022/08/24 12:18:04;;;;;;;1.35;0.80;;;;;;;;;;5051372;28;20551;-81
2022/08/24 12:20:36;;;;;;;1.60;0.70;;;;;;;;;;5050853;28;20048;-80
2022/08/24 12:23:04;;;;;;;2.42;0.60;;;;;;;;;;5050799;28;20029;-80
2022/08/24 12:28:22;;;;;;;2.75;1.00;;;;;;;;;;5051888;28;20049;-80
2022/08/24 12:30:50;;;;;;;2.22;0.80;;;;;;;;;;5069526;28;20033;-80
2022/08/24 12:33:17;;;;;;;1.90;0.80;;;;;;;;;;5036666;28;20446;-81
2022/08/24 12:35:45;;;;;;;2.72;0.60;;;;;;;;;;5036856;28;20045;-80
2022/08/24 12:38:16;;;;;;;2.45;0.75;;;;;;;;;;5051897;28;20478;-84
2022/08/24 12:40:46;;;;;;;1.33;0.73;;;;;;;;;;5047623;28;20542;-81
2022/08/24 12:43:19;;;;;;;3.53;0.90;;;;;;;;;;5050602;28;20393;-80
2022/08/24 12:45:45;;;;;;;2.25;0.93;;;;;;;;;;5036503;28;20068;-80
2022/08/24 12:48:23;;;;;;;2.95;1.10;;;;;;;;;;5052242;28;20128;-81
2022/08/24 12:51:15;;;;;;;2.95;1.10;;;;;;;;;;5035141;28;20080;-83
2022/08/24 12:53:46;;;;;;;1.58;0.90;;;;;;;;;;5026076;28;20060;-83
2022/08/24 12:56:24;;;;;;;1.33;0.80;;;;;;;;;;5049630;28;20083;-84
2022/08/24 12:59:06;;;;;;;2.33;0.90;;;;;;;;;;5049200;28;20036;-84
2022/08/24 13:01:34;;;;;;;3.67;1.17;;;;;;;;;;5052002;28;20124;-83
2022/08/24 13:04:36;;;;;;;2.92;1.30;;;;;;;;;;5044527;28;20033;-84
2022/08/24 13:07:10;;;;;;;4.85;0.98;;;;;;;;;;5008008;28;20040;-84
2022/08/24 13:09:42;;;;;;;2.05;0.90;;;;;;;;;;5045884;28;20055;-84
2022/08/24 13:12:27;;;;;;;4.50;0.98;;;;;;;;;;5045470;28;20041;-84
2022/08/24 13:15:13;;;;;;;2.75;0.80;;;;;;;;;;5048818;28;20084;-84
2022/08/24 13:17:40;;;;;;;2.88;0.80;;;;;;;;;;5047994;28;20051;-85
2022/08/24 13:20:22;;;;;;;3.53;1.85;;;;;;;;;;5050484;28;20044;-84
2022/08/24 13:23:00;;;;;;;1.67;1.10;;;;;;;;;;5048949;28;20474;-83
2022/08/24 13:25:41;;;;;;;5.80;1.20;;;;;;;;;;5035142;28;20044;-81
2022/08/24 13:28:10;;;;;;;3.83;1.30;;;;;;;;;;5050947;28;20041;-84
2022/08/24 13:30:55;;;;;;;2.00;1.10;;;;;;;;;;5052623;28;20084;-80
2022/08/24 13:33:29;;;;;;;3.00;1.15;;;;;;;;;;5037231;28;20420;-80
2022/08/24 13:35:55;;;;;;;3.37;0.97;;;;;;;;;;5046703;28;20045;-82
2022/08/24 13:38:33;;;;;;;2.97;1.00;;;;;;;;;;5034203;28;20059;-82
2022/08/24 13:41:05;;;;;;;2.58;0.95;;;;;;;;;;5036320;28;20041;-82
2022/08/24 13:43:34;;;;;;;2.53;0.95;;;;;;;;;;5034660;28;20087;-83
2022/08/24 13:46:16;;;;;;;2.30;0.90;;;;;;;;;;5036185;28;20481;-84
2022/08/24 13:49:02;;;;;;;3.15;0.90;;;;;;;;;;5038585;28;20114;-86
2022/08/24 13:51:35;;;;;;;1.73;0.90;;;;;;;;;;5051006;28;20072;-82
2022/08/24 13:54:18;;;;;;;3.17;0.93;;;;;;;;;;5041138;28;20048;-82
2022/08/24 13:56:58;;;;;;;2.90;0.80;;;;;;;;;;5035806;28;20045;-83
2022/08/24 13:59:43;;;;;;;3.08;1.00;;;;;;;;;;5040592;28;20371;-82
2022/08/24 14:02:15;;;;;;;1.27;0.70;;;;;;;;;;5049860;28;20541;-82
2022/08/24 14:04:44;;;;;;;2.38;0.80;;;;;;;;;;5044010;28;20045;-82
2022/08/24 14:07:22;;;;;;;2.60;1.00;;;;;;;;;;5036852;28;20045;-82
2022/08/24 14:10:08;;;;;;;4.22;0.90;;;;;;;;;;5044528;28;20049;-82
2022/08/24 14:12:43;;;;;;;3.72;1.15;;;;;;;;;;5052020;28;20088;-82
2022/08/24 14:15:28;;;;;;;3.65;1.20;;;;;;;;;;5038936;28;20054;-82
2022/08/24 14:17:54;;;;;;;;;;;;;;;;;;5034606;28;20055;-81
2022/08/24 14:20:23;;;;;;;5.15;1.45;;;;;;;;;;5039147;28;19924;-82
2022/08/24 14:22:55;;;;;;;2.03;1.20;;;;;;;;;;5036674;28;20036;-82
2022/08/24 14:25:24;;;;;;;8.95;1.70;;;;;;;;;;5048773;28;20036;-83
2022/08/24 14:27:56;;;;;;;2.72;1.17;;;;;;;;;;5051245;28;20106;-83
2022/08/24 14:30:22;;;;;;;4.68;1.30;;;;;;;;;;5033543;28;20083;-83
2022/08/24 14:33:01;;;;;;;5.60;1.42;;;;;;;;;;5051142;28;20056;-83
2022/08/24 14:35:32;;;;;;;4.70;1.63;;;;;;;;;;5049995;28;20125;-83
2022/08/24 14:38:17;;;;;;;3.55;1.10;;;;;;;;;;5033073;28;20059;-83
2022/08/24 14:40:49;;;;;;;2.33;1.50;;;;;;;;;;5056885;28;20119;-83
2022/08/24 14:43:34;;;;;;;2.92;1.70;;;;;;;;;;5040881;28;20450;-83
2022/08/24 14:46:00;;;;;;;;;;;;;;;;;;5041350;28;20048;-83
2022/08/24 14:48:34;;;;;;;5.38;1.88;;;;;;;;;;5043512;28;19925;-83
2022/08/24 14:51:33;;;;;;;4.43;1.40;;;;;;;;;;5046155;28;20056;-83
2022/08/24 14:53:59;;;;;;;3.95;1.40;;;;;;;;;;5022568;28;20077;-83
2022/08/24 14:56:44;;;;;;;5.03;1.88;;;;;;;;;;5052674;28;20041;-83
2022/08/24 14:59:29;;;;;;;4.45;1.50;;;;;;;;;;5045745;28;20049;-83
2022/08/24 15:01:55;;;;;;;;;;;;;;;;;;5052859;28;20068;-86
2022/08/24 15:04:40;;;;;;;3.88;1.70;;;;;;;;;;5045449;28;19924;-84
2022/08/24 15:07:27;;;;;;;4.15;1.40;;;;;;;;;;5049520;28;20501;-84